createdAt,value
2023-04-28T00:00:40.123Z,6.50
2023-04-28T00:04:47.766Z,7.67
2023-04-28T00:08:51.739Z,8.07
2023-04-28T00:12:54.746Z,7.17
2023-04-28T00:16:59.366Z,7.37
2023-04-28T00:21:05.170Z,7.57
2023-04-28T00:25:09.300Z,6.67
2023-04-28T00:29:15.005Z,7.03
2023-04-28T00:33:27.648Z,6.30
2023-04-28T00:37:37.003Z,8.13
2023-04-28T00:41:43.260Z,7.43
2023-04-28T00:45:47.284Z,6.90
2023-04-28T00:49:53.160Z,6.73
2023-04-28T00:54:01.791Z,7.30
2023-04-28T00:58:07.063Z,6.30
2023-04-28T01:02:18.326Z,5.93
2023-04-28T01:06:21.804Z,6.73
2023-04-28T01:10:35.008Z,6.47
2023-04-28T01:14:38.016Z,6.00
2023-04-28T01:18:48.136Z,6.87
2023-04-28T01:22:51.276Z,6.67
2023-04-28T01:26:57.528Z,6.10
2023-04-28T01:31:00.548Z,6.60
2023-04-28T01:35:06.178Z,6.47
2023-04-28T01:39:13.688Z,7.83
2023-04-28T01:43:18.295Z,6.47
2023-04-28T01:47:21.746Z,6.83
2023-04-28T01:51:28.109Z,6.70
2023-04-28T01:55:31.251Z,6.83
2023-04-28T01:59:35.686Z,6.57
2023-04-28T02:03:43.430Z,6.20
2023-04-28T02:07:46.615Z,6.60
2023-04-28T02:11:49.576Z,5.87
2023-04-28T02:15:54.047Z,6.30
2023-04-28T02:19:57.639Z,6.17
2023-04-28T02:24:00.792Z,6.30
2023-04-28T02:28:04.219Z,5.77
2023-04-28T02:32:08.947Z,6.03
2023-04-28T02:36:12.241Z,6.45
2023-04-28T02:40:17.481Z,6.37
2023-04-28T02:44:22.098Z,6.47
2023-04-28T02:48:27.090Z,5.97
2023-04-28T02:52:30.097Z,6.57
2023-04-28T02:56:33.220Z,5.93
2023-04-28T03:00:36.487Z,6.00
2023-04-28T03:04:40.988Z,6.20
2023-04-28T03:08:44.379Z,5.60
2023-04-28T03:12:50.370Z,5.83
2023-04-28T03:16:56.449Z,5.90
2023-04-28T03:21:07.124Z,5.83
2023-04-28T03:25:11.756Z,5.70
2023-04-28T03:29:18.566Z,5.27
2023-04-28T03:33:21.590Z,5.57
2023-04-28T03:37:27.288Z,5.50
2023-04-28T03:41:36.576Z,5.60
2023-04-28T03:45:42.140Z,5.50
2023-04-28T03:49:45.187Z,5.20
2023-04-28T03:53:50.049Z,5.20
2023-04-28T03:57:53.738Z,5.37
2023-04-28T04:01:59.058Z,5.67
2023-04-28T04:06:02.339Z,6.03
2023-04-28T04:10:07.766Z,5.50
2023-04-28T04:14:11.116Z,5.40
2023-04-28T04:18:14.938Z,5.40
2023-04-28T04:22:19.028Z,5.43
2023-04-28T04:26:24.010Z,4.77
2023-04-28T04:30:26.969Z,5.23
2023-04-28T04:34:32.951Z,4.63
2023-04-28T04:38:35.935Z,5.23
2023-04-28T04:42:43.550Z,4.83
2023-04-28T04:46:50.014Z,5.20
2023-04-28T04:50:53.449Z,4.73
2023-04-28T04:54:57.534Z,4.60
2023-04-28T04:59:02.523Z,4.63
2023-04-28T05:03:06.761Z,5.00
2023-04-28T05:07:12.795Z,4.93
2023-04-28T05:11:17.949Z,4.90
2023-04-28T05:15:26.160Z,4.80
2023-04-28T05:19:29.263Z,4.40
2023-04-28T05:23:32.287Z,5.00
2023-04-28T05:27:37.702Z,5.28
2023-04-28T05:31:47.309Z,4.83
2023-04-28T05:35:50.402Z,5.35
2023-04-28T05:39:55.603Z,5.30
2023-04-28T05:43:58.623Z,4.68
2023-04-28T05:48:08.920Z,5.70
2023-04-28T05:52:12.186Z,4.80
2023-04-28T05:56:15.246Z,5.18
2023-04-28T06:00:20.184Z,5.72
2023-04-28T06:04:25.725Z,5.05
2023-04-28T06:08:29.599Z,4.82
2023-04-28T06:12:35.417Z,5.32
2023-04-28T06:16:38.431Z,5.07
2023-04-28T06:20:42.841Z,5.30
2023-04-28T06:24:45.841Z,5.78
2023-04-28T06:28:49.034Z,6.05
2023-04-28T06:32:52.416Z,5.28
2023-04-28T06:36:57.108Z,5.65
2023-04-28T06:41:05.117Z,5.15
2023-04-28T06:45:09.445Z,5.40
2023-04-28T06:49:13.718Z,5.82
2023-04-28T06:53:23.167Z,6.15
2023-04-28T06:57:29.323Z,6.57
2023-04-28T07:01:32.610Z,5.97
2023-04-28T07:05:36.388Z,6.57
2023-04-28T07:09:40.882Z,6.55
2023-04-28T07:13:43.919Z,6.18
2023-04-28T07:17:50.091Z,6.65
2023-04-28T07:21:56.126Z,6.93
2023-04-28T07:26:08.919Z,6.95
2023-04-28T07:30:26.740Z,7.35
2023-04-28T07:34:38.896Z,7.15
2023-04-28T07:38:42.356Z,7.30
2023-04-28T07:42:47.228Z,7.38
2023-04-28T07:46:52.139Z,7.80
2023-04-28T07:50:57.210Z,7.38
2023-04-28T07:55:04.465Z,7.70
2023-04-28T07:59:09.695Z,7.45
2023-04-28T08:03:16.178Z,7.88
2023-04-28T08:07:19.334Z,8.52
2023-04-28T08:11:22.798Z,8.13
2023-04-28T08:15:27.799Z,8.48
2023-04-28T08:19:31.261Z,8.80
2023-04-28T08:23:34.296Z,8.73
2023-04-28T08:27:40.003Z,9.00
2023-04-28T08:31:47.579Z,9.23
2023-04-28T08:35:51.750Z,9.32
2023-04-28T08:40:02.308Z,9.77
2023-04-28T08:44:11.940Z,9.10
2023-04-28T08:48:22.419Z,9.52
2023-04-28T08:52:31.030Z,9.77
2023-04-28T08:56:36.813Z,9.35
2023-04-28T09:00:39.833Z,10.15
2023-04-28T09:04:47.209Z,10.32
2023-04-28T09:08:50.496Z,10.30
2023-04-28T09:12:55.864Z,10.15
2023-04-28T09:17:10.449Z,10.50
2023-04-28T09:21:14.834Z,11.65
2023-04-28T09:25:21.439Z,12.73
2023-04-28T09:29:24.601Z,12.65
2023-04-28T09:33:28.001Z,12.18
2023-04-28T09:37:35.147Z,11.75
2023-04-28T09:41:40.535Z,11.45
2023-04-28T09:45:48.409Z,12.52
2023-04-28T09:50:00.688Z,12.10
2023-04-28T09:54:06.457Z,12.90
2023-04-28T09:58:17.175Z,12.18
2023-04-28T10:02:42.599Z,12.45
2023-04-28T10:06:45.882Z,12.15
2023-04-28T10:10:53.110Z,12.50
2023-04-28T10:14:57.240Z,13.65
2023-04-28T10:19:01.130Z,14.43
2023-04-28T10:23:26.754Z,13.75
2023-04-28T10:27:33.088Z,13.13
2023-04-28T10:31:37.676Z,13.15
2023-04-28T10:35:47.502Z,13.85
2023-04-28T10:40:32.089Z,14.20
2023-04-28T10:44:45.754Z,15.30
2023-04-28T10:48:59.100Z,13.77
2023-04-28T10:53:04.344Z,12.70
2023-04-28T10:57:28.623Z,14.30
2023-04-28T11:01:35.086Z,14.65
2023-04-28T11:05:38.451Z,13.70
2023-04-28T11:09:53.547Z,13.05
2023-04-28T11:14:16.999Z,12.88
2023-04-28T11:18:23.571Z,12.85
2023-04-28T11:22:26.564Z,13.18
2023-04-28T11:26:30.474Z,11.23
2023-04-28T11:30:33.759Z,11.85
2023-04-28T11:34:38.719Z,11.65
2023-04-28T11:38:48.894Z,11.80
2023-04-28T11:42:58.343Z,13.77
2023-04-28T11:47:06.480Z,12.13
2023-04-28T11:51:33.515Z,12.27
2023-04-28T11:55:38.226Z,12.88
2023-04-28T11:59:44.132Z,13.52
2023-04-28T12:03:48.816Z,13.85
2023-04-28T12:07:53.574Z,13.57
2023-04-28T12:11:58.075Z,12.43
2023-04-28T12:16:06.404Z,13.40
2023-04-28T12:20:12.942Z,12.35
2023-04-28T12:24:27.268Z,13.45
2023-04-28T12:28:39.033Z,13.13
2023-04-28T12:32:46.406Z,15.70
2023-04-28T12:36:49.465Z,15.15
2023-04-28T12:40:54.214Z,14.70
2023-04-28T12:44:57.602Z,14.20
2023-04-28T12:49:01.253Z,12.95
2023-04-28T12:53:06.486Z,12.48
2023-04-28T12:57:17.528Z,13.68
2023-04-28T13:01:20.651Z,16.85
2023-04-28T13:05:23.683Z,14.20
2023-04-28T13:09:27.477Z,20.85
2023-04-28T13:13:37.569Z,14.73
2023-04-28T13:17:42.631Z,12.75
2023-04-28T13:21:49.125Z,14.60
2023-04-28T13:25:55.038Z,14.90
2023-04-28T13:30:00.161Z,14.30
2023-04-28T13:34:05.291Z,14.95
2023-04-28T13:38:13.057Z,14.02
2023-04-28T13:42:20.795Z,14.63
2023-04-28T13:46:26.288Z,14.88
2023-04-28T13:50:39.557Z,20.02
2023-04-28T13:54:45.863Z,25.13
2023-04-28T13:58:49.405Z,14.05
2023-04-28T14:02:54.094Z,15.02
2023-04-28T14:06:57.224Z,15.05
2023-04-28T14:11:02.579Z,15.10
2023-04-28T14:15:06.164Z,15.27
2023-04-28T14:19:11.102Z,16.08
2023-04-28T14:23:15.608Z,14.85
2023-04-28T14:27:20.570Z,15.30
2023-04-28T14:31:23.600Z,16.70
2023-04-28T14:35:30.315Z,16.00
2023-04-28T14:39:40.105Z,15.30
2023-04-28T14:43:47.218Z,15.20
2023-04-28T14:47:51.237Z,16.42
2023-04-28T14:51:55.849Z,16.35
2023-04-28T15:00:08.895Z,15.63
2023-04-28T15:04:13.544Z,14.85
2023-04-28T15:08:19.598Z,15.23
2023-04-28T15:12:22.630Z,14.98
2023-04-28T15:16:26.195Z,16.40
2023-04-28T15:20:31.234Z,17.38
2023-04-28T15:24:35.738Z,19.30
2023-04-28T15:28:39.440Z,16.90
2023-04-28T15:32:44.497Z,18.48
2023-04-28T15:36:50.244Z,18.48
2023-04-28T15:40:54.764Z,17.83
2023-04-28T15:44:58.592Z,18.83
2023-04-28T15:49:03.534Z,19.10
2023-04-28T15:53:14.018Z,19.60
2023-04-28T15:57:18.418Z,18.95
2023-04-28T16:01:25.115Z,19.27
2023-04-28T16:05:30.072Z,20.25
2023-04-28T16:09:33.598Z,20.23
2023-04-28T16:13:43.091Z,20.88
2023-04-28T16:17:46.154Z,17.90
2023-04-28T16:21:49.382Z,15.90
2023-04-28T16:25:54.247Z,14.52
2023-04-28T16:30:00.297Z,14.02
2023-04-28T16:34:03.813Z,14.65
2023-04-28T16:38:06.836Z,13.43
2023-04-28T16:42:15.055Z,13.75
2023-04-28T16:46:19.846Z,13.18
2023-04-28T16:50:24.862Z,23.20
2023-04-28T16:54:28.473Z,18.27
2023-04-28T16:58:33.164Z,14.85
2023-04-28T17:02:40.205Z,16.42
2023-04-28T17:06:43.338Z,17.38
2023-04-28T17:10:47.223Z,16.33
2023-04-28T17:14:51.751Z,16.75
2023-04-28T17:18:57.328Z,17.75
2023-04-28T17:23:03.841Z,17.90
2023-04-28T17:27:06.870Z,18.80
2023-04-28T17:31:14.907Z,19.40
2023-04-28T17:35:22.076Z,18.35
2023-04-28T17:39:25.078Z,18.77
2023-04-28T17:43:28.322Z,20.92
2023-04-28T17:47:34.284Z,19.77
2023-04-28T17:51:44.169Z,22.80
2023-04-28T17:55:50.369Z,20.20
2023-04-28T17:59:53.816Z,20.70
2023-04-28T18:04:01.622Z,22.35
2023-04-28T18:08:09.476Z,20.60
2023-04-28T18:12:14.417Z,18.95
2023-04-28T18:16:17.855Z,23.08
2023-04-28T18:20:21.342Z,29.15
2023-04-28T18:24:26.365Z,22.75
2023-04-28T18:28:29.674Z,26.98
2023-04-28T18:32:40.528Z,26.90
2023-04-28T18:36:46.413Z,22.23
2023-04-28T18:40:54.387Z,18.77
2023-04-28T18:44:58.688Z,19.73
2023-04-28T18:49:10.319Z,17.85
2023-04-28T18:53:16.969Z,16.00
2023-04-28T18:57:23.668Z,17.67
2023-04-28T19:01:28.383Z,18.85
2023-04-28T19:05:35.711Z,18.02
2023-04-28T19:09:42.189Z,19.50
2023-04-28T19:13:46.606Z,18.15
2023-04-28T19:17:49.749Z,19.15
2023-04-28T19:21:53.177Z,18.02
2023-04-28T19:25:58.535Z,23.52
2023-04-28T19:30:06.453Z,22.00
2023-04-28T19:34:09.523Z,21.73
2023-04-28T19:38:13.088Z,23.45
2023-04-28T19:42:20.576Z,23.50
2023-04-28T19:46:25.030Z,26.05
2023-04-28T19:50:28.374Z,26.92
2023-04-28T19:54:31.424Z,25.13
2023-04-28T19:58:34.463Z,19.63
2023-04-28T20:02:39.176Z,16.38
2023-04-28T20:06:43.049Z,13.68
2023-04-28T20:10:48.388Z,11.40
2023-04-28T20:14:53.576Z,11.80
2023-04-28T20:18:57.971Z,11.77
2023-04-28T20:23:08.551Z,11.73
2023-04-28T20:27:12.537Z,9.52
2023-04-28T20:31:16.374Z,6.28
2023-04-28T20:35:22.929Z,3.92
2023-04-28T20:39:28.611Z,4.07
2023-04-28T20:43:34.343Z,4.00
2023-04-28T20:47:37.928Z,3.50
2023-04-28T20:51:45.252Z,3.33
2023-04-28T20:55:51.688Z,3.20
2023-04-28T20:59:54.714Z,2.58
2023-04-28T21:03:57.802Z,3.25
2023-04-28T21:08:05.194Z,4.25
2023-04-28T21:12:11.168Z,3.60
2023-04-28T21:16:21.011Z,3.38
2023-04-28T21:20:24.708Z,3.10
2023-04-28T21:24:29.371Z,3.50
2023-04-28T21:28:35.264Z,3.58
2023-04-28T21:32:40.066Z,3.65
2023-04-28T21:36:44.681Z,3.70
2023-04-28T21:40:57.554Z,3.35
2023-04-28T21:45:03.074Z,3.55
2023-04-28T21:49:06.147Z,3.67
2023-04-28T21:53:10.693Z,3.40
2023-04-28T21:57:16.785Z,3.30
2023-04-28T22:01:20.777Z,3.78
2023-04-28T22:05:26.904Z,4.45
2023-04-28T22:09:33.382Z,4.28
2023-04-28T22:13:37.874Z,5.10
2023-04-28T22:17:40.940Z,4.63
2023-04-28T22:21:46.955Z,4.43
2023-04-28T22:25:50.383Z,4.35
2023-04-28T22:29:54.791Z,4.45
2023-04-28T22:33:58.891Z,5.05
2023-04-28T22:38:02.593Z,5.03
2023-04-28T22:42:07.511Z,5.10
2023-04-28T22:46:12.082Z,5.30
2023-04-28T22:50:16.263Z,6.00
2023-04-28T22:54:22.490Z,5.85
2023-04-28T22:58:26.123Z,9.65
2023-04-28T23:02:30.653Z,21.80
2023-04-28T23:06:36.838Z,12.65
2023-04-28T23:10:41.505Z,11.82
2023-04-28T23:14:46.946Z,23.27
2023-04-28T23:18:54.159Z,8.32
2023-04-28T23:23:01.849Z,7.47
2023-04-28T23:27:12.618Z,6.25
2023-04-28T23:31:19.637Z,6.70
2023-04-28T23:35:27.005Z,6.05
2023-04-28T23:39:30.823Z,5.95
2023-04-28T23:43:33.869Z,5.13
2023-04-28T23:47:37.532Z,5.32
2023-04-28T23:51:44.088Z,5.95
2023-04-28T23:55:47.083Z,9.50
2023-04-28T23:59:50.595Z,6.32
